Time;durP1;ratioP1;P1;durP2;ratioP2;P2;SDS_P1;SDS_P2;PMS_P1;PMS_P2;Temp;Humidity;BMP_temperature;BMP_pressure;BME280_temperature;BME280_humidity;BME280_pressure;Samples;Min_cycle;Max_cycle;Signal;HPM_P1;HPM_P2
2024/01/23 00:02:22;;;;;;;1.15;0.52;;;;;;;;;;5052248;28;20078;-78
2024/01/23 00:04:48;;;;;;;1.95;0.60;;;;;;;;;;5049964;28;20034;-80
2024/01/23 00:07:14;;;;;;;2.65;0.60;;;;;;;;;;5045972;28;20040;-80
2024/01/23 00:09:40;;;;;;;1.30;0.40;;;;;;;;;;5041628;28;20029;-78
2024/01/23 00:12:09;;;;;;;1.85;0.52;;;;;;;;;;5043953;28;20159;-78
2024/01/23 00:14:36;;;;;;;2.47;0.60;;;;;;;;;;5047081;28;20460;-78
2024/01/23 00:17:02;;;;;;;3.75;0.63;;;;;;;;;;5048171;28;20490;-78
2024/01/23 00:19:28;;;;;;;1.00;0.50;;;;;;;;;;5037397;28;20494;-77
2024/01/23 00:21:54;;;;;;;1.15;0.70;;;;;;;;;;5033082;28;20025;-77
2024/01/23 00:24:20;;;;;;;3.40;0.50;;;;;;;;;;5033181;28;20061;-78
2024/01/23 00:26:46;;;;;;;2.47;0.45;;;;;;;;;;5038030;28;20030;-79
2024/01/23 00:29:12;;;;;;;1.63;0.55;;;;;;;;;;5032264;28;20021;-77
2024/01/23 00:31:38;;;;;;;1.38;0.60;;;;;;;;;;5040257;28;20025;-78
2024/01/23 00:34:05;;;;;;;3.40;0.73;;;;;;;;;;5037254;28;20072;-78
2024/01/23 00:36:31;;;;;;;2.65;0.93;;;;;;;;;;5030818;28;20038;-78
2024/01/23 00:38:57;;;;;;;0.38;0.30;;;;;;;;;;5045938;28;20017;-79
2024/01/23 00:41:23;;;;;;;2.10;0.40;;;;;;;;;;5035360;28;20033;-79
2024/01/23 00:43:49;;;;;;;2.33;0.75;;;;;;;;;;5047992;28;20024;-80
2024/01/23 00:46:15;;;;;;;1.40;0.60;;;;;;;;;;5060454;28;20005;-79
2024/01/23 00:48:41;;;;;;;2.83;0.73;;;;;;;;;;5055827;28;20515;-77
2024/01/23 00:51:08;;;;;;;4.85;0.63;;;;;;;;;;5058211;28;20025;-77
2024/01/23 00:53:36;;;;;;;0.73;0.52;;;;;;;;;;5053295;28;20048;-78
2024/01/23 00:56:02;;;;;;;3.83;0.90;;;;;;;;;;5049512;28;20032;-78
2024/01/23 00:58:28;;;;;;;6.15;0.80;;;;;;;;;;5038944;28;20028;-78
2024/01/23 01:00:54;;;;;;;3.53;0.68;;;;;;;;;;5039589;28;20023;-78
2024/01/23 01:03:20;;;;;;;2.15;0.80;;;;;;;;;;5041235;28;20518;-78
2024/01/23 01:05:46;;;;;;;3.90;0.70;;;;;;;;;;5037930;28;20056;-78
2024/01/23 01:08:12;;;;;;;1.85;0.50;;;;;;;;;;5026508;28;20026;-78
2024/01/23 01:10:38;;;;;;;5.18;0.73;;;;;;;;;;5042730;28;20021;-78
2024/01/23 01:13:04;;;;;;;2.17;0.60;;;;;;;;;;5041059;28;20017;-78
2024/01/23 01:15:30;;;;;;;2.63;0.60;;;;;;;;;;5031880;28;20025;-77
2024/01/23 01:17:57;;;;;;;1.80;0.60;;;;;;;;;;5044070;28;20088;-79
2024/01/23 01:20:23;;;;;;;2.30;0.65;;;;;;;;;;5048079;28;20108;-80
2024/01/23 01:22:49;;;;;;;2.45;0.68;;;;;;;;;;5042462;28;20048;-78
2024/01/23 01:25:15;;;;;;;1.73;0.60;;;;;;;;;;5044313;28;20018;-78
2024/01/23 01:27:41;;;;;;;1.95;0.50;;;;;;;;;;5040470;28;20028;-78
2024/01/23 01:30:07;;;;;;;2.30;0.45;;;;;;;;;;5021292;28;20032;-78
2024/01/23 01:32:33;;;;;;;1.77;0.45;;;;;;;;;;5042026;28;20037;-78
2024/01/23 01:34:59;;;;;;;1.88;0.57;;;;;;;;;;5044568;28;20025;-79
2024/01/23 01:37:25;;;;;;;2.40;0.50;;;;;;;;;;5033195;28;20026;-79
2024/01/23 01:39:51;;;;;;;2.00;0.32;;;;;;;;;;5026151;28;20025;-78
2024/01/23 01:42:18;;;;;;;1.90;0.50;;;;;;;;;;5039462;28;20478;-79
2024/01/23 01:44:44;;;;;;;0.50;0.50;;;;;;;;;;5043615;28;20026;-78
2024/01/23 01:47:10;;;;;;;2.33;0.57;;;;;;;;;;5046443;28;20051;-79
2024/01/23 01:49:36;;;;;;;1.55;0.60;;;;;;;;;;5047608;28;20439;-80
2024/01/23 01:52:03;;;;;;;1.90;0.40;;;;;;;;;;5040620;28;20018;-78
2024/01/23 01:54:30;;;;;;;1.60;0.50;;;;;;;;;;5048452;28;20452;-78
2024/01/23 01:56:59;;;;;;;1.63;0.40;;;;;;;;;;5051794;28;20032;-78
2024/01/23 01:59:25;;;;;;;1.02;0.40;;;;;;;;;;5047067;28;20021;-78
2024/01/23 02:01:51;;;;;;;1.75;0.55;;;;;;;;;;5040859;28;20060;-78
2024/01/23 02:04:17;;;;;;;3.17;0.40;;;;;;;;;;5046346;28;20028;-77
2024/01/23 02:06:43;;;;;;;2.25;0.40;;;;;;;;;;5047512;28;20029;-77
2024/01/23 02:09:11;;;;;;;1.35;0.38;;;;;;;;;;5035199;28;20021;-79
2024/01/23 02:11:37;;;;;;;2.55;0.55;;;;;;;;;;5044594;28;20021;-79
2024/01/23 02:14:05;;;;;;;3.03;0.60;;;;;;;;;;5044512;28;20030;-78
2024/01/23 02:16:31;;;;;;;1.65;0.30;;;;;;;;;;5046769;28;20026;-78
2024/01/23 02:18:57;;;;;;;0.90;0.50;;;;;;;;;;5047571;28;20428;-79
2024/01/23 02:21:24;;;;;;;2.55;0.50;;;;;;;;;;5041516;28;20048;-79
2024/01/23 02:23:50;;;;;;;0.60;0.30;;;;;;;;;;5057421;28;20014;-79
2024/01/23 02:26:16;;;;;;;1.73;0.40;;;;;;;;;;5049172;28;20025;-78
2024/01/23 02:28:42;;;;;;;0.73;0.45;;;;;;;;;;5044021;28;20032;-77
2024/01/23 02:31:08;;;;;;;1.33;0.47;;;;;;;;;;5041376;28;20395;-78
2024/01/23 02:33:35;;;;;;;1.92;0.45;;;;;;;;;;5040268;28;20041;-77
2024/01/23 02:36:01;;;;;;;2.25;0.40;;;;;;;;;;5040042;28;20507;-78
2024/01/23 02:38:27;;;;;;;2.50;0.40;;;;;;;;;;5042591;28;20148;-78
2024/01/23 02:40:53;;;;;;;0.98;0.30;;;;;;;;;;5043620;28;20102;-78
2024/01/23 02:43:19;;;;;;;1.77;0.40;;;;;;;;;;5044810;28;20032;-78
2024/01/23 02:45:45;;;;;;;1.75;0.50;;;;;;;;;;5031446;28;20029;-77
2024/01/23 02:48:11;;;;;;;2.45;0.30;;;;;;;;;;5022764;28;20097;-77
2024/01/23 02:50:37;;;;;;;2.08;0.73;;;;;;;;;;5033697;28;20025;-78
2024/01/23 02:53:03;;;;;;;2.20;0.50;;;;;;;;;;5031464;28;20029;-78
2024/01/23 02:55:29;;;;;;;0.68;0.30;;;;;;;;;;5019900;28;20144;-78
2024/01/23 02:57:55;;;;;;;4.18;0.40;;;;;;;;;;5035927;28;20027;-78
2024/01/23 03:00:22;;;;;;;2.47;0.40;;;;;;;;;;5035039;28;20049;-78
2024/01/23 03:02:48;;;;;;;4.15;0.45;;;;;;;;;;5020774;28;20041;-78
2024/01/23 03:05:14;;;;;;;2.33;0.65;;;;;;;;;;5030826;28;20388;-78
2024/01/23 03:07:40;;;;;;;3.08;1.30;;;;;;;;;;5036850;28;20028;-79
2024/01/23 03:10:08;;;;;;;1.60;0.40;;;;;;;;;;5036398;28;20070;-79
2024/01/23 03:12:34;;;;;;;3.67;0.40;;;;;;;;;;5041818;28;20089;-79
2024/01/23 03:15:00;;;;;;;2.75;0.40;;;;;;;;;;5046100;28;20041;-77
2024/01/23 03:17:26;;;;;;;1.80;0.40;;;;;;;;;;5054110;28;20033;-77
2024/01/23 03:19:52;;;;;;;1.65;0.50;;;;;;;;;;5058018;28;20135;-78
2024/01/23 03:22:18;;;;;;;1.48;0.40;;;;;;;;;;5057260;28;20045;-77
2024/01/23 03:24:44;;;;;;;2.63;0.77;;;;;;;;;;5055222;28;20056;-77
2024/01/23 03:27:10;;;;;;;1.02;0.40;;;;;;;;;;5055287;28;20045;-78
2024/01/23 03:29:40;;;;;;;3.90;0.40;;;;;;;;;;5055123;28;20049;-78
2024/01/23 03:32:07;;;;;;;1.45;0.30;;;;;;;;;;5049682;28;20574;-78
2024/01/23 03:34:33;;;;;;;1.33;0.40;;;;;;;;;;5027362;28;20134;-78
2024/01/23 03:37:02;;;;;;;0.25;0.25;;;;;;;;;;5035781;28;20480;-77
2024/01/23 03:39:29;;;;;;;1.92;0.40;;;;;;;;;;5036306;28;20022;-78
2024/01/23 03:41:55;;;;;;;1.70;0.30;;;;;;;;;;5037374;28;20025;-78
2024/01/23 03:44:21;;;;;;;3.00;0.40;;;;;;;;;;5042179;28;20070;-77
2024/01/23 03:46:48;;;;;;;0.32;0.32;;;;;;;;;;5040156;28;20085;-78
2024/01/23 03:49:14;;;;;;;2.28;1.10;;;;;;;;;;5028081;28;20025;-78
2024/01/23 03:51:40;;;;;;;2.35;0.68;;;;;;;;;;5023561;28;20025;-77
2024/01/23 03:54:06;;;;;;;1.15;0.40;;;;;;;;;;5022337;28;20057;-78
2024/01/23 03:56:32;;;;;;;1.65;0.40;;;;;;;;;;5033281;28;20050;-78
2024/01/23 03:58:58;;;;;;;2.00;0.45;;;;;;;;;;5039922;28;20064;-78
2024/01/23 04:01:24;;;;;;;1.33;0.60;;;;;;;;;;5036752;28;20022;-78
2024/01/23 04:03:50;;;;;;;2.33;0.85;;;;;;;;;;5044677;28;20030;-78
2024/01/23 04:06:16;;;;;;;1.55;0.57;;;;;;;;;;5041438;28;20033;-78
2024/01/23 04:08:42;;;;;;;2.78;0.50;;;;;;;;;;5035296;28;20025;-78
2024/01/23 04:11:12;;;;;;;1.42;0.43;;;;;;;;;;5023538;28;20044;-79
2024/01/23 04:13:38;;;;;;;2.03;0.30;;;;;;;;;;5022739;28;20022;-77
2024/01/23 04:16:07;;;;;;;2.45;0.57;;;;;;;;;;5037967;28;20115;-77
2024/01/23 04:18:34;;;;;;;3.42;0.70;;;;;;;;;;5040174;28;20026;-78
2024/01/23 04:21:00;;;;;;;1.10;0.60;;;;;;;;;;5054783;28;20013;-78
2024/01/23 04:23:26;;;;;;;1.80;0.70;;;;;;;;;;5056981;28;20056;-78
2024/01/23 04:25:52;;;;;;;2.92;0.47;;;;;;;;;;5040030;28;20024;-79
2024/01/23 04:28:18;;;;;;;4.55;0.43;;;;;;;;;;5056457;28;20060;-79
2024/01/23 04:30:44;;;;;;;3.28;0.63;;;;;;;;;;5056707;28;20041;-78
2024/01/23 04:33:10;;;;;;;5.50;0.73;;;;;;;;;;5047528;28;20021;-78
2024/01/23 04:35:38;;;;;;;4.60;0.98;;;;;;;;;;5042906;28;20018;-77
2024/01/23 04:38:05;;;;;;;3.75;0.93;;;;;;;;;;5045683;28;20018;-78
2024/01/23 04:40:31;;;;;;;3.45;0.80;;;;;;;;;;5037544;28;20040;-79
2024/01/23 04:42:57;;;;;;;2.63;1.17;;;;;;;;;;5056038;28;20031;-79
2024/01/23 04:45:23;;;;;;;3.67;0.50;;;;;;;;;;5049378;28;20025;-79
2024/01/23 04:47:49;;;;;;;4.68;1.48;;;;;;;;;;5044067;28;20042;-78
2024/01/23 04:50:15;;;;;;;2.25;0.70;;;;;;;;;;5051544;28;20009;-79
2024/01/23 04:52:41;;;;;;;1.95;0.65;;;;;;;;;;5042105;28;20037;-78
2024/01/23 04:55:08;;;;;;;4.55;1.20;;;;;;;;;;5024964;28;20026;-78
2024/01/23 04:57:34;;;;;;;6.07;1.08;;;;;;;;;;5038503;28;20018;-78
2024/01/23 05:00:00;;;;;;;2.25;0.80;;;;;;;;;;5030752;28;20056;-77
2024/01/23 05:02:27;;;;;;;6.00;0.63;;;;;;;;;;5026422;28;20022;-77
2024/01/23 05:04:53;;;;;;;2.88;0.50;;;;;;;;;;5033155;28;20022;-77
2024/01/23 05:07:19;;;;;;;4.30;0.85;;;;;;;;;;5037772;28;20032;-78
2024/01/23 05:09:45;;;;;;;3.13;0.60;;;;;;;;;;5040288;28;20029;-78
2024/01/23 05:12:11;;;;;;;5.80;0.73;;;;;;;;;;5028746;28;20066;-79
2024/01/23 05:14:37;;;;;;;3.47;0.85;;;;;;;;;;5037792;28;20036;-78
2024/01/23 05:17:03;;;;;;;2.25;0.77;;;;;;;;;;5026621;28;20133;-77
2024/01/23 05:19:30;;;;;;;5.55;1.20;;;;;;;;;;5022467;28;20074;-78
2024/01/23 05:21:56;;;;;;;4.20;1.08;;;;;;;;;;5031223;28;20022;-79
2024/01/23 05:24:22;;;;;;;3.63;0.70;;;;;;;;;;5024101;28;20018;-80
2024/01/23 05:26:49;;;;;;;4.60;0.70;;;;;;;;;;5029496;28;20033;-78
2024/01/23 05:29:15;;;;;;;3.25;1.27;;;;;;;;;;5039937;28;20060;-79
2024/01/23 05:31:41;;;;;;;4.15;0.90;;;;;;;;;;5034983;28;20022;-79
2024/01/23 05:34:07;;;;;;;2.60;0.65;;;;;;;;;;5024693;28;20049;-79
2024/01/23 05:36:33;;;;;;;7.75;0.93;;;;;;;;;;5027543;28;20037;-78
2024/01/23 05:38:59;;;;;;;2.10;0.77;;;;;;;;;;5037448;28;20014;-78
2024/01/23 05:41:27;;;;;;;1.80;0.80;;;;;;;;;;5035696;28;20091;-78
2024/01/23 05:43:55;;;;;;;1.40;0.68;;;;;;;;;;5048361;28;20018;-78
2024/01/23 05:46:21;;;;;;;3.60;0.80;;;;;;;;;;5047383;28;20022;-78
2024/01/23 05:48:47;;;;;;;7.20;1.45;;;;;;;;;;5039507;28;20044;-78
2024/01/23 05:51:14;;;;;;;2.10;0.90;;;;;;;;;;5032593;28;20018;-79
2024/01/23 05:53:40;;;;;;;3.30;0.88;;;;;;;;;;5037051;28;20010;-79
2024/01/23 05:56:08;;;;;;;2.70;0.52;;;;;;;;;;5039429;28;20032;-76
2024/01/23 05:58:35;;;;;;;2.58;0.80;;;;;;;;;;5036616;28;20053;-78
2024/01/23 06:01:02;;;;;;;6.70;0.93;;;;;;;;;;5039673;28;20032;-78
2024/01/23 06:03:27;;;;;;;2.72;0.60;;;;;;;;;;5044728;28;20078;-78
2024/01/23 06:05:54;;;;;;;3.53;0.88;;;;;;;;;;5042214;28;20071;-78
2024/01/23 06:08:20;;;;;;;2.03;0.75;;;;;;;;;;5033316;28;20045;-78
2024/01/23 06:10:47;;;;;;;1.48;0.60;;;;;;;;;;5035489;28;20041;-79
2024/01/23 06:13:13;;;;;;;6.70;0.88;;;;;;;;;;5028237;28;20108;-78
2024/01/23 06:15:42;;;;;;;7.32;0.95;;;;;;;;;;5027305;28;20022;-79
2024/01/23 06:18:10;;;;;;;2.63;0.57;;;;;;;;;;5037158;28;20045;-79
2024/01/23 06:20:36;;;;;;;4.90;0.82;;;;;;;;;;5024575;28;20017;-77
2024/01/23 06:23:02;;;;;;;3.25;0.60;;;;;;;;;;5039950;28;20029;-79
2024/01/23 06:25:29;;;;;;;4.75;0.98;;;;;;;;;;5033166;28;20022;-76
2024/01/23 06:27:55;;;;;;;4.10;1.08;;;;;;;;;;5040810;28;20108;-78
2024/01/23 06:30:21;;;;;;;2.50;0.90;;;;;;;;;;5031833;28;20050;-78
2024/01/23 06:32:47;;;;;;;7.68;1.10;;;;;;;;;;5045395;28;20040;-79
2024/01/23 06:35:13;;;;;;;2.40;0.80;;;;;;;;;;5033276;28;20034;-78
2024/01/23 06:37:40;;;;;;;2.45;0.63;;;;;;;;;;5044061;28;20037;-78
2024/01/23 06:40:08;;;;;;;4.10;1.10;;;;;;;;;;5031805;28;20026;-79
2024/01/23 06:42:35;;;;;;;5.43;0.80;;;;;;;;;;5036781;28;20071;-79
2024/01/23 06:45:02;;;;;;;5.30;0.73;;;;;;;;;;5036061;28;20029;-80
2024/01/23 06:47:29;;;;;;;4.22;0.90;;;;;;;;;;5044437;28;20025;-79
2024/01/23 06:49:55;;;;;;;4.53;1.10;;;;;;;;;;5047007;28;20052;-79
2024/01/23 06:52:22;;;;;;;8.05;1.10;;;;;;;;;;5052730;28;20115;-79
2024/01/23 06:54:51;;;;;;;4.28;0.88;;;;;;;;;;5042000;28;20026;-79
2024/01/23 06:57:17;;;;;;;1.48;0.60;;;;;;;;;;5039975;28;20033;-80
2024/01/23 06:59:44;;;;;;;2.05;0.55;;;;;;;;;;5053570;28;20049;-78
2024/01/23 07:02:11;;;;;;;6.20;0.82;;;;;;;;;;5046276;28;20460;-80
2024/01/23 07:04:37;;;;;;;6.15;1.67;;;;;;;;;;5036836;28;20096;-80
2024/01/23 07:07:03;;;;;;;5.28;1.08;;;;;;;;;;5032308;28;20022;-79
2024/01/23 07:09:29;;;;;;;6.35;1.17;;;;;;;;;;5043780;28;20056;-79
2024/01/23 07:11:55;;;;;;;6.00;1.20;;;;;;;;;;5036923;28;20049;-77
2024/01/23 07:14:22;;;;;;;4.20;1.00;;;;;;;;;;5035519;28;20010;-79
2024/01/23 07:16:48;;;;;;;3.08;0.68;;;;;;;;;;5043887;28;20021;-79
2024/01/23 07:19:14;;;;;;;2.90;1.23;;;;;;;;;;5030893;28;20052;-79
2024/01/23 07:21:40;;;;;;;4.25;1.15;;;;;;;;;;5046508;28;20028;-79
2024/01/23 07:24:07;;;;;;;5.07;1.35;;;;;;;;;;5031470;28;20026;-79
2024/01/23 07:26:33;;;;;;;4.65;1.25;;;;;;;;;;5027415;28;20500;-78
2024/01/23 07:28:59;;;;;;;3.70;0.80;;;;;;;;;;5043013;28;20026;-79
2024/01/23 07:31:25;;;;;;;7.13;1.05;;;;;;;;;;5037546;28;20025;-79
2024/01/23 07:33:51;;;;;;;4.90;0.85;;;;;;;;;;5038791;28;20149;-79
2024/01/23 07:36:18;;;;;;;6.40;1.40;;;;;;;;;;5030803;28;20087;-79
2024/01/23 07:38:44;;;;;;;3.47;0.70;;;;;;;;;;5036163;28;20030;-77
2024/01/23 07:41:10;;;;;;;5.18;0.50;;;;;;;;;;5041185;28;20025;-79
2024/01/23 07:43:36;;;;;;;4.88;1.00;;;;;;;;;;5036540;28;20026;-77
2024/01/23 07:46:03;;;;;;;2.28;0.50;;;;;;;;;;5039907;28;20022;-78
2024/01/23 07:48:29;;;;;;;4.65;1.08;;;;;;;;;;5033261;28;20029;-78
2024/01/23 07:50:58;;;;;;;6.53;1.33;;;;;;;;;;5033004;28;20064;-79
2024/01/23 07:53:24;;;;;;;2.65;1.10;;;;;;;;;;5042603;28;20049;-78
2024/01/23 07:55:52;;;;;;;1.80;0.70;;;;;;;;;;5031666;28;20049;-78
2024/01/23 07:58:24;;;;;;;1.55;1.08;;;;;;;;;;5047919;28;20104;-79
2024/01/23 08:00:50;;;;;;;;;;;;;;;;;;5046452;28;20093;-79
2024/01/23 08:03:16;;;;;;;4.43;1.50;;;;;;;;;;5036677;28;19893;-79
2024/01/23 08:05:42;;;;;;;5.75;1.20;;;;;;;;;;5040807;28;20030;-79
2024/01/23 08:08:08;;;;;;;3.95;1.25;;;;;;;;;;5046436;28;20108;-79
2024/01/23 08:10:35;;;;;;;9.40;1.58;;;;;;;;;;5050393;28;20029;-78
2024/01/23 08:13:03;;;;;;;5.18;1.23;;;;;;;;;;5040496;28;20033;-78
2024/01/23 08:15:29;;;;;;;5.68;1.13;;;;;;;;;;5027641;28;20030;-79
2024/01/23 08:17:57;;;;;;;2.92;1.00;;;;;;;;;;5035440;28;20018;-79
2024/01/23 08:20:23;;;;;;;2.88;0.80;;;;;;;;;;5025052;28;20030;-78
2024/01/23 08:22:49;;;;;;;3.55;0.93;;;;;;;;;;5042054;28;20056;-79
2024/01/23 08:25:15;;;;;;;3.88;0.70;;;;;;;;;;5037619;28;20018;-79
2024/01/23 08:27:42;;;;;;;2.90;0.57;;;;;;;;;;5037299;28;20083;-79
2024/01/23 08:30:10;;;;;;;2.20;1.08;;;;;;;;;;5028034;28;20524;-80
2024/01/23 08:32:37;;;;;;;4.07;0.70;;;;;;;;;;5035291;28;20048;-79
2024/01/23 08:35:03;;;;;;;4.03;0.40;;;;;;;;;;5041676;28;20041;-79
2024/01/23 08:37:29;;;;;;;1.65;0.32;;;;;;;;;;5040993;28;20033;-79
2024/01/23 08:39:55;;;;;;;2.40;0.57;;;;;;;;;;5042425;28;20036;-78
2024/01/23 08:42:21;;;;;;;3.53;0.65;;;;;;;;;;5049711;28;20173;-78
2024/01/23 08:44:49;;;;;;;3.17;0.63;;;;;;;;;;5044805;28;20026;-78
2024/01/23 08:47:16;;;;;;;2.67;0.60;;;;;;;;;;5043230;28;20034;-77
2024/01/23 08:49:43;;;;;;;1.48;0.65;;;;;;;;;;5053628;28;20095;-77
2024/01/23 08:52:09;;;;;;;2.28;0.75;;;;;;;;;;5052199;28;20021;-77
2024/01/23 08:54:36;;;;;;;3.63;0.57;;;;;;;;;;5039896;28;20072;-80
2024/01/23 08:57:02;;;;;;;3.67;0.70;;;;;;;;;;5038505;28;20021;-79
2024/01/23 08:59:29;;;;;;;4.70;0.65;;;;;;;;;;5047442;28;20021;-79
2024/01/23 09:01:55;;;;;;;1.27;0.40;;;;;;;;;;5035345;28;20318;-80
2024/01/23 09:04:21;;;;;;;4.90;0.75;;;;;;;;;;5028461;28;20081;-79
2024/01/23 09:06:47;;;;;;;3.75;0.80;;;;;;;;;;5045503;28;20033;-80
2024/01/23 09:09:13;;;;;;;1.65;0.70;;;;;;;;;;5037218;28;20025;-79
2024/01/23 09:11:39;;;;;;;1.35;0.32;;;;;;;;;;5037184;28;20503;-80
2024/01/23 09:14:06;;;;;;;3.88;0.55;;;;;;;;;;5038748;28;20034;-78
2024/01/23 09:16:32;;;;;;;3.78;0.40;;;;;;;;;;5033382;28;20021;-80
2024/01/23 09:18:58;;;;;;;4.00;0.52;;;;;;;;;;5032758;28;20037;-78
2024/01/23 09:21:24;;;;;;;1.30;0.40;;;;;;;;;;5033151;28;20018;-79
2024/01/23 09:23:50;;;;;;;1.02;0.45;;;;;;;;;;5035269;28;20026;-79
2024/01/23 09:26:17;;;;;;;2.67;0.65;;;;;;;;;;5051797;28;20077;-78
2024/01/23 09:28:44;;;;;;;1.85;0.95;;;;;;;;;;5036751;28;20021;-80
2024/01/23 09:31:14;;;;;;;2.53;0.70;;;;;;;;;;5046097;28;20053;-80
2024/01/23 09:33:41;;;;;;;9.25;3.78;;;;;;;;;;5027105;28;20090;-79
2024/01/23 09:36:09;;;;;;;8.82;4.10;;;;;;;;;;5036644;28;20056;-79
2024/01/23 09:38:36;;;;;;;4.25;2.50;;;;;;;;;;5033620;28;20045;-78
2024/01/23 09:41:05;;;;;;;1.48;1.38;;;;;;;;;;5040242;28;20031;-79
2024/01/23 09:43:32;;;;;;;1.73;1.20;;;;;;;;;;5041316;28;20017;-79
2024/01/23 09:46:00;;;;;;;1.88;0.85;;;;;;;;;;5036880;28;20096;-78
2024/01/23 09:48:26;;;;;;;2.22;0.90;;;;;;;;;;5045408;28;20024;-78
2024/01/23 09:50:52;;;;;;;3.05;1.48;;;;;;;;;;5037073;28;20114;-79
2024/01/23 09:53:22;;;;;;;6.10;1.15;;;;;;;;;;5041930;28;20018;-78
2024/01/23 09:55:48;;;;;;;1.05;0.90;;;;;;;;;;5047527;28;20024;-78
2024/01/23 09:58:15;;;;;;;3.65;1.05;;;;;;;;;;5041651;28;20098;-78
2024/01/23 10:00:41;;;;;;;4.15;1.00;;;;;;;;;;5038708;28;20030;-78
2024/01/23 10:03:09;;;;;;;2.53;1.05;;;;;;;;;;5038392;28;20089;-79
2024/01/23 10:05:35;;;;;;;2.92;1.10;;;;;;;;;;5041987;28;20094;-78
2024/01/23 10:08:02;;;;;;;1.73;1.02;;;;;;;;;;5048213;28;20042;-79
2024/01/23 10:10:30;;;;;;;2.45;1.08;;;;;;;;;;5036755;28;20053;-78
2024/01/23 10:12:56;;;;;;;4.03;1.58;;;;;;;;;;5053194;28;20018;-78
2024/01/23 10:15:22;;;;;;;6.00;2.38;;;;;;;;;;5045520;28;20021;-78
2024/01/23 10:17:49;;;;;;;2.72;1.52;;;;;;;;;;5041158;28;20381;-79
2024/01/23 10:20:16;;;;;;;4.95;1.40;;;;;;;;;;5048398;28;20028;-79
2024/01/23 10:22:46;;;;;;;3.33;1.08;;;;;;;;;;5047366;28;20497;-79
2024/01/23 10:25:20;;;;;;;4.57;0.80;;;;;;;;;;5030185;28;20027;-79
2024/01/23 10:27:50;;;;;;;3.50;1.13;;;;;;;;;;5023567;28;20022;-78
2024/01/23 10:30:17;;;;;;;2.17;0.85;;;;;;;;;;5024392;28;20029;-78
2024/01/23 10:32:43;;;;;;;1.83;1.00;;;;;;;;;;5026017;28;20022;-80
2024/01/23 10:35:12;;;;;;;2.05;1.00;;;;;;;;;;5038013;28;20069;-80
2024/01/23 10:37:39;;;;;;;5.10;1.10;;;;;;;;;;5045993;28;20033;-79
2024/01/23 10:40:05;;;;;;;3.15;0.95;;;;;;;;;;5042895;28;20044;-78
2024/01/23 10:42:31;;;;;;;2.35;0.90;;;;;;;;;;5039834;28;20044;-79
2024/01/23 10:44:59;;;;;;;4.10;1.30;;;;;;;;;;5046251;28;20061;-79
2024/01/23 10:47:25;;;;;;;7.47;1.45;;;;;;;;;;5039154;28;20068;-79
2024/01/23 10:49:51;;;;;;;2.92;1.15;;;;;;;;;;5037326;28;20041;-80
2024/01/23 10:52:18;;;;;;;1.98;1.20;;;;;;;;;;5035218;28;20484;-78
2024/01/23 10:54:46;;;;;;;1.90;1.00;;;;;;;;;;5048770;28;20045;-79
2024/01/23 10:57:24;;;;;;;8.27;1.88;;;;;;;;;;5046835;28;20017;-79
2024/01/23 10:59:51;;;;;;;3.13;1.15;;;;;;;;;;5048005;28;20017;-79
2024/01/23 11:02:28;;;;;;;3.63;1.20;;;;;;;;;;5049819;28;20021;-78
2024/01/23 11:04:55;;;;;;;3.40;1.30;;;;;;;;;;5046636;28;20376;-79
2024/01/23 11:07:24;;;;;;;5.63;1.17;;;;;;;;;;5043298;28;20036;-79
2024/01/23 11:10:02;;;;;;;4.22;1.10;;;;;;;;;;5027855;28;20025;-78
2024/01/23 11:12:33;;;;;;;4.55;1.60;;;;;;;;;;5028228;28;20362;-80
2024/01/23 11:15:01;;;;;;;3.40;1.08;;;;;;;;;;5039240;28;20090;-79
2024/01/23 11:17:32;;;;;;;3.88;1.10;;;;;;;;;;5033696;28;20026;-77
2024/01/23 11:20:07;;;;;;;6.43;1.52;;;;;;;;;;5035333;28;20113;-79
2024/01/23 11:22:33;;;;;;;3.05;1.20;;;;;;;;;;5032319;28;20026;-78
2024/01/23 11:24:59;;;;;;;5.00;2.03;;;;;;;;;;5034109;28;20029;-78
2024/01/23 11:27:25;;;;;;;6.05;1.45;;;;;;;;;;5027463;28;20070;-79
2024/01/23 11:29:52;;;;;;;4.60;1.30;;;;;;;;;;5031403;28;20048;-77
2024/01/23 11:32:19;;;;;;;5.35;1.08;;;;;;;;;;5023851;28;20097;-79
2024/01/23 11:34:45;;;;;;;5.25;1.50;;;;;;;;;;5026405;28;20045;-80
2024/01/23 11:37:31;;;;;;;4.10;1.30;;;;;;;;;;5044815;28;20460;-79
2024/01/23 11:39:59;;;;;;;7.18;1.60;;;;;;;;;;5035716;28;20030;-78
2024/01/23 11:42:35;;;;;;;7.88;1.73;;;;;;;;;;5039314;28;20025;-78
2024/01/23 11:45:23;;;;;;;4.13;1.25;;;;;;;;;;5024855;28;20025;-79
2024/01/23 11:48:00;;;;;;;8.73;1.95;;;;;;;;;;5023528;28;20068;-79
2024/01/23 11:50:26;;;;;;;4.68;1.65;;;;;;;;;;5038595;28;20021;-78
2024/01/23 11:52:54;;;;;;;3.33;1.40;;;;;;;;;;5025828;28;20029;-80
2024/01/23 11:55:20;;;;;;;5.30;1.50;;;;;;;;;;5031461;28;20025;-79
2024/01/23 11:57:50;;;;;;;6.60;1.48;;;;;;;;;;5027265;28;20026;-79
2024/01/23 12:00:17;;;;;;;8.82;1.52;;;;;;;;;;5028067;28;20040;-79
2024/01/23 12:02:43;;;;;;;3.70;1.13;;;;;;;;;;5028224;28;20018;-78
2024/01/23 12:05:09;;;;;;;11.40;1.70;;;;;;;;;;5044957;28;20052;-78
2024/01/23 12:07:37;;;;;;;4.05;1.00;;;;;;;;;;5042749;28;20029;-79
2024/01/23 12:10:04;;;;;;;4.88;1.65;;;;;;;;;;5033621;28;20065;-79
2024/01/23 12:12:31;;;;;;;6.07;1.35;;;;;;;;;;5033100;28;20045;-78
2024/01/23 12:14:57;;;;;;;7.65;2.30;;;;;;;;;;5046442;28;20033;-79
2024/01/23 12:17:23;;;;;;;4.97;1.52;;;;;;;;;;5046749;28;20038;-79
2024/01/23 12:19:49;;;;;;;4.78;1.25;;;;;;;;;;5033806;28;20025;-79
2024/01/23 12:22:18;;;;;;;3.92;2.00;;;;;;;;;;5031141;28;20142;-79
2024/01/23 12:24:45;;;;;;;10.32;5.40;;;;;;;;;;5046526;28;20025;-80
2024/01/23 12:27:12;;;;;;;10.50;4.68;;;;;;;;;;5035166;28;20102;-79
2024/01/23 12:29:38;;;;;;;11.82;6.15;;;;;;;;;;5028267;28;20053;-79
2024/01/23 12:32:05;;;;;;;3.72;2.20;;;;;;;;;;5037922;28;20052;-79
2024/01/23 12:34:34;;;;;;;5.70;2.20;;;;;;;;;;5038614;28;20033;-79
2024/01/23 12:37:01;;;;;;;4.82;2.30;;;;;;;;;;5035255;28;20060;-79
2024/01/23 12:39:30;;;;;;;5.15;2.15;;;;;;;;;;5030848;28;20061;-79
2024/01/23 12:41:56;;;;;;;5.75;1.77;;;;;;;;;;5033173;28;20026;-78
2024/01/23 12:44:23;;;;;;;3.53;1.02;;;;;;;;;;5044630;28;20083;-79
2024/01/23 12:46:50;;;;;;;5.47;1.00;;;;;;;;;;5044727;28;20093;-79
2024/01/23 12:49:18;;;;;;;5.13;1.38;;;;;;;;;;5045160;28;20100;-80
2024/01/23 12:51:47;;;;;;;7.90;1.42;;;;;;;;;;5044693;28;20035;-79
2024/01/23 12:54:14;;;;;;;5.60;1.35;;;;;;;;;;5035028;28;20029;-80
2024/01/23 12:56:40;;;;;;;5.35;1.80;;;;;;;;;;5028048;28;20034;-79
2024/01/23 12:59:06;;;;;;;5.53;1.90;;;;;;;;;;5038757;28;20029;-79
2024/01/23 13:01:32;;;;;;;5.78;1.50;;;;;;;;;;5034948;28;20048;-79
2024/01/23 13:03:58;;;;;;;4.55;1.45;;;;;;;;;;5040805;28;20377;-79
2024/01/23 13:06:24;;;;;;;7.65;2.50;;;;;;;;;;5044260;28;20037;-78
2024/01/23 13:08:51;;;;;;;9.10;2.65;;;;;;;;;;5038272;28;20068;-78
2024/01/23 13:11:17;;;;;;;6.05;2.35;;;;;;;;;;5040267;28;20025;-78
2024/01/23 13:13:43;;;;;;;5.15;1.67;;;;;;;;;;5049707;28;20064;-78
2024/01/23 13:16:09;;;;;;;4.32;1.30;;;;;;;;;;5046564;28;20034;-78
2024/01/23 13:18:35;;;;;;;5.43;1.30;;;;;;;;;;5038921;28;20056;-80
2024/01/23 13:21:01;;;;;;;6.35;1.23;;;;;;;;;;5041207;28;20026;-79
2024/01/23 13:23:27;;;;;;;5.82;1.10;;;;;;;;;;5047671;28;20013;-79
2024/01/23 13:25:53;;;;;;;10.73;2.38;;;;;;;;;;5032464;28;20097;-78
2024/01/23 13:28:21;;;;;;;6.25;1.52;;;;;;;;;;5032752;28;20026;-79
2024/01/23 13:30:48;;;;;;;4.20;1.10;;;;;;;;;;5040254;28;20072;-79
2024/01/23 13:33:16;;;;;;;2.88;0.88;;;;;;;;;;5047680;28;20073;-80
2024/01/23 13:35:42;;;;;;;4.50;1.17;;;;;;;;;;5057112;28;20014;-79
2024/01/23 13:38:08;;;;;;;3.03;1.00;;;;;;;;;;5055786;28;20025;-78
2024/01/23 13:40:34;;;;;;;3.08;0.88;;;;;;;;;;5047773;28;20086;-79
2024/01/23 13:43:00;;;;;;;3.15;0.85;;;;;;;;;;5034754;28;20054;-79
2024/01/23 13:45:27;;;;;;;3.95;0.90;;;;;;;;;;5037142;28;20056;-79
2024/01/23 13:47:55;;;;;;;4.43;0.88;;;;;;;;;;5038358;28;20017;-80
2024/01/23 13:50:21;;;;;;;1.90;0.65;;;;;;;;;;5032714;28;20014;-78
2024/01/23 13:52:49;;;;;;;3.95;1.27;;;;;;;;;;5032032;28;20026;-79
2024/01/23 13:55:16;;;;;;;3.55;0.70;;;;;;;;;;5028659;28;20022;-79
2024/01/23 13:57:42;;;;;;;3.38;0.90;;;;;;;;;;5028089;28;20022;-79
2024/01/23 14:00:12;;;;;;;1.48;0.60;;;;;;;;;;5034176;28;20056;-79
2024/01/23 14:02:41;;;;;;;2.53;0.90;;;;;;;;;;5027787;28;20018;-79
2024/01/23 14:05:08;;;;;;;2.10;0.80;;;;;;;;;;5031199;28;20029;-80
2024/01/23 14:07:34;;;;;;;3.40;1.30;;;;;;;;;;5048960;28;20082;-79
2024/01/23 14:10:00;;;;;;;11.02;4.50;;;;;;;;;;5041787;28;20045;-79
2024/01/23 14:12:26;;;;;;;11.73;5.78;;;;;;;;;;5036904;28;20101;-79
2024/01/23 14:14:53;;;;;;;5.65;3.22;;;;;;;;;;5035512;28;20479;-79
2024/01/23 14:17:19;;;;;;;3.20;2.17;;;;;;;;;;5053593;28;20033;-78
2024/01/23 14:19:46;;;;;;;3.65;1.45;;;;;;;;;;5046566;28;20018;-78
2024/01/23 14:22:13;;;;;;;1.60;1.10;;;;;;;;;;5042617;28;20113;-79
2024/01/23 14:24:39;;;;;;;3.60;1.40;;;;;;;;;;5036675;28;20052;-78
2024/01/23 14:27:05;;;;;;;6.30;1.50;;;;;;;;;;5047754;28;20610;-78
2024/01/23 14:29:31;;;;;;;2.38;1.17;;;;;;;;;;5040797;28;20072;-79
2024/01/23 14:31:58;;;;;;;2.63;0.85;;;;;;;;;;5044193;28;20063;-79
2024/01/23 14:34:24;;;;;;;5.18;1.10;;;;;;;;;;5048212;28;20041;-78
2024/01/23 14:36:50;;;;;;;2.88;0.88;;;;;;;;;;5044185;28;20026;-79
2024/01/23 14:39:18;;;;;;;6.28;1.17;;;;;;;;;;5049758;28;20097;-78
2024/01/23 14:41:44;;;;;;;2.22;0.98;;;;;;;;;;5043376;28;20116;-79